Time,TemperatureF,DewpointF,PressureIn,WindDirection,WindDirectionDegrees,WindSpeedMPH,WindSpeedGustMPH,Humidity,HourlyPrecipIn,Conditions,Clouds,dailyrainin,SolarRadiationWatts/m^2,SoftwareType,DateUTC
2013-05-25 00:00:00,45.7,44.9,29.85,WNW,289,0.0,0.0,97,0.08,,---,0.42,0.00,VWS V14.01,2013-05-25 04:00:00,
2013-05-25 00:01:00,45.7,44.9,29.85,WNW,289,0.0,0.0,97,0.08,,---,0.42,0.00,VWS V14.01,2013-05-25 04:01:00,
2013-05-25 00:02:00,45.6,44.8,29.85,WNW,289,0.0,0.0,97,0.08,,---,0.00,0.00,VWS V14.01,2013-05-25 04:02:00,
2013-05-25 00:07:00,45.7,44.9,29.85,WNW,289,0.0,0.0,97,0.09,,---,0.01,0.00,VWS V14.01,2013-05-25 04:07:00,
2013-05-25 00:12:00,45.7,44.9,29.85,WNW,289,0.0,0.0,97,0.09,,---,0.01,0.00,VWS V14.01,2013-05-25 04:12:00,
2013-05-25 00:17:00,45.8,45.0,29.85,WNW,289,0.0,0.0,97,0.09,,---,0.01,0.00,VWS V14.01,2013-05-25 04:17:00,
2013-05-25 00:22:00,45.8,45.0,29.85,WNW,289,0.0,0.0,97,0.12,,---,0.04,0.00,VWS V14.01,2013-05-25 04:22:00,
2013-05-25 00:27:00,45.8,45.0,29.85,WNW,289,0.0,0.0,97,0.14,,---,0.06,0.00,VWS V14.01,2013-05-25 04:27:00,
2013-05-25 00:32:00,45.8,45.0,29.84,WNW,289,0.0,0.0,97,0.13,,---,0.06,0.00,VWS V14.01,2013-05-25 04:32:00,
2013-05-25 00:37:00,45.8,45.0,29.84,WNW,289,0.0,0.0,97,0.14,,---,0.07,0.00,VWS V14.01,2013-05-25 04:37:00,
2013-05-25 00:42:00,45.8,45.3,29.83,WNW,289,0.0,0.0,98,0.14,,---,0.07,0.00,VWS V14.01,2013-05-25 04:42:00,
2013-05-25 00:47:00,46.0,45.5,29.83,East,87,0.0,0.0,98,0.08,,---,0.07,0.00,VWS V14.01,2013-05-25 04:47:00,
2013-05-25 00:52:00,45.8,45.3,29.83,NNE,22,0.0,5.0,98,0.08,,---,0.07,0.00,VWS V14.01,2013-05-25 04:52:00,
2013-05-25 00:57:00,46.0,45.5,29.83,NNE,22,0.0,5.0,98,0.09,,---,0.08,0.00,VWS V14.01,2013-05-25 04:57:00,
2013-05-25 01:02:00,46.0,45.5,29.83,SE,129,0.0,0.0,98,0.08,,---,0.08,0.00,VWS V14.01,2013-05-25 05:02:00,
2013-05-25 01:07:00,46.0,45.5,29.83,East,101,0.0,0.0,98,0.08,,---,0.08,0.00,VWS V14.01,2013-05-25 05:07:00,
2013-05-25 01:12:00,46.0,45.5,29.83,WSW,252,0.0,2.0,98,0.08,,---,0.08,0.00,VWS V14.01,2013-05-25 05:12:00,
2013-05-25 01:17:00,46.0,45.5,29.83,NE,50,0.0,0.0,98,0.07,,---,0.08,0.00,VWS V14.01,2013-05-25 05:17:00,
2013-05-25 01:22:00,46.0,45.5,29.83,NE,50,0.0,0.0,98,0.07,,---,0.08,0.00,VWS V14.01,2013-05-25 05:22:00,
2013-05-25 01:27:00,46.0,45.5,29.82,NW,315,1.0,2.0,98,0.07,,---,0.08,0.00,VWS V14.01,2013-05-25 05:27:00,
2013-05-25 01:32:00,46.1,45.6,29.82,NW,315,0.0,2.0,98,0.02,,---,0.08,0.00,VWS V14.01,2013-05-25 05:32:00,
2013-05-25 01:37:00,46.0,45.5,29.82,NW,319,0.0,2.0,98,0.02,,---,0.08,0.00,VWS V14.01,2013-05-25 05:37:00,
2013-05-25 01:42:00,46.0,45.5,29.82,South,181,0.0,2.0,98,0.02,,---,0.08,0.00,VWS V14.01,2013-05-25 05:42:00,
2013-05-25 01:47:00,46.0,45.5,29.82,North,5,0.0,0.0,98,0.02,,---,0.09,0.00,VWS V14.01,2013-05-25 05:47:00,
2013-05-25 01:52:00,46.0,45.5,29.82,North,5,0.0,0.0,98,0.02,,---,0.09,0.00,VWS V14.01,2013-05-25 05:52:00,
2013-05-25 01:57:00,46.0,45.5,29.81,North,5,0.0,0.0,98,0.02,,---,0.09,0.00,VWS V14.01,2013-05-25 05:57:00,
2013-05-25 02:02:00,46.0,45.5,29.81,NNW,335,0.0,0.0,98,0.01,,---,0.09,0.00,VWS V14.01,2013-05-25 06:02:00,
2013-05-25 02:07:00,46.0,45.5,29.81,NNW,336,0.0,0.0,98,0.01,,---,0.09,0.00,VWS V14.01,2013-05-25 06:07:00,
2013-05-25 02:12:00,46.0,45.5,29.81,NNW,336,0.0,0.0,98,0.01,,---,0.09,0.00,VWS V14.01,2013-05-25 06:12:00,
2013-05-25 02:17:00,46.0,45.5,29.81,NE,35,0.0,0.0,98,0.01,,---,0.09,0.00,VWS V14.01,2013-05-25 06:17:00,
2013-05-25 02:22:00,46.0,45.5,29.82,NNW,340,0.0,2.0,98,0.01,,---,0.09,0.00,VWS V14.01,2013-05-25 06:22:00,
2013-05-25 02:27:00,45.8,45.3,29.81,NNW,333,0.0,2.0,98,0.01,,---,0.09,0.00,VWS V14.01,2013-05-25 06:27:00,
2013-05-25 02:32:00,45.7,45.2,29.81,East,100,0.0,0.0,98,0.01,,---,0.09,0.00,VWS V14.01,2013-05-25 06:32:00,
2013-05-25 02:37:00,45.7,45.2,29.81,East,82,0.0,1.0,98,0.01,,---,0.09,0.00,VWS V14.01,2013-05-25 06:37:00,
2013-05-25 02:42:00,45.7,45.2,29.82,ENE,64,0.0,2.0,98,0.02,,---,0.10,0.00,VWS V14.01,2013-05-25 06:42:00,
2013-05-25 02:47:00,45.8,45.3,29.81,ENE,64,0.0,0.0,98,0.02,,---,0.10,0.00,VWS V14.01,2013-05-25 06:47:00,
2013-05-25 02:52:00,45.7,45.2,29.81,ENE,64,0.0,0.0,98,0.02,,---,0.10,0.00,VWS V14.01,2013-05-25 06:52:00,
2013-05-25 02:57:00,45.8,45.3,29.81,ENE,64,0.0,0.0,98,0.02,,---,0.10,0.00,VWS V14.01,2013-05-25 06:57:00,
2013-05-25 03:02:00,45.7,45.2,29.81,ENE,64,0.0,0.0,98,0.01,,---,0.10,0.00,VWS V14.01,2013-05-25 07:02:00,
2013-05-25 03:07:00,45.6,45.1,29.82,ENE,64,0.0,0.0,98,0.01,,---,0.10,0.00,VWS V14.01,2013-05-25 07:07:00,
2013-05-25 03:12:00,45.6,45.1,29.81,ENE,64,0.0,0.0,98,0.01,,---,0.10,0.00,VWS V14.01,2013-05-25 07:12:00,
2013-05-25 03:17:00,45.6,45.1,29.81,ENE,64,0.0,0.0,98,0.01,,---,0.10,0.00,VWS V14.01,2013-05-25 07:17:00,
2013-05-25 03:22:00,45.3,44.8,29.81,ENE,64,0.0,0.0,98,0.02,,---,0.11,0.00,VWS V14.01,2013-05-25 07:22:00,
2013-05-25 03:27:00,45.4,44.9,29.81,ENE,64,0.0,0.0,98,0.02,,---,0.11,0.00,VWS V14.01,2013-05-25 07:27:00,
2013-05-25 03:32:00,45.4,44.9,29.81,ENE,64,0.0,0.0,98,0.02,,---,0.11,0.00,VWS V14.01,2013-05-25 07:32:00,
2013-05-25 03:37:00,45.4,44.9,29.81,ENE,64,0.0,0.0,98,0.02,,---,0.11,0.00,VWS V14.01,2013-05-25 07:37:00,
2013-05-25 03:42:00,45.4,44.9,29.81,ENE,64,0.0,0.0,98,0.02,,---,0.11,0.00,VWS V14.01,2013-05-25 07:42:00,
2013-05-25 03:47:00,45.4,44.9,29.81,ENE,64,0.0,0.0,98,0.02,,---,0.12,0.00,VWS V14.01,2013-05-25 07:47:00,
2013-05-25 03:52:00,45.4,44.9,29.80,ENE,64,0.0,0.0,98,0.02,,---,0.12,0.00,VWS V14.01,2013-05-25 07:52:00,
2013-05-25 03:57:00,45.4,44.9,29.80,ENE,64,0.0,0.0,98,0.02,,---,0.12,0.00,VWS V14.01,2013-05-25 07:57:00,
2013-05-25 04:02:00,45.3,44.8,29.80,ENE,64,0.0,0.0,98,0.02,,---,0.12,0.00,VWS V14.01,2013-05-25 08:02:00,
2013-05-25 04:07:00,45.3,44.8,29.80,ENE,64,0.0,0.0,98,0.03,,---,0.13,0.00,VWS V14.01,2013-05-25 08:07:00,
2013-05-25 04:12:00,45.3,44.8,29.80,ENE,64,0.0,0.0,98,0.03,,---,0.13,0.00,VWS V14.01,2013-05-25 08:12:00,
2013-05-25 04:17:00,45.3,44.8,29.79,ENE,64,0.0,0.0,98,0.03,,---,0.13,0.00,VWS V14.01,2013-05-25 08:17:00,
2013-05-25 04:22:00,45.3,44.8,29.79,ENE,64,0.0,0.0,98,0.04,,---,0.14,0.00,VWS V14.01,2013-05-25 08:22:00,
2013-05-25 04:27:00,45.1,44.6,29.79,ENE,64,0.0,0.0,98,0.04,,---,0.14,0.00,VWS V14.01,2013-05-25 08:27:00,
2013-05-25 04:32:00,45.1,44.6,29.79,ENE,64,0.0,0.0,98,0.04,,---,0.15,0.00,VWS V14.01,2013-05-25 08:32:00,
2013-05-25 04:37:00,45.1,44.6,29.79,ENE,64,0.0,0.0,98,0.04,,---,0.15,0.00,VWS V14.01,2013-05-25 08:37:00,
2013-05-25 04:42:00,45.0,44.5,29.80,ENE,64,0.0,0.0,98,0.04,,---,0.15,0.00,VWS V14.01,2013-05-25 08:42:00,
2013-05-25 04:47:00,45.0,44.5,29.80,ENE,64,0.0,0.0,98,0.03,,---,0.15,0.00,VWS V14.01,2013-05-25 08:47:00,
2013-05-25 04:52:00,45.0,44.5,29.80,ENE,64,0.0,0.0,98,0.04,,---,0.16,0.00,VWS V14.01,2013-05-25 08:52:00,
2013-05-25 04:57:00,45.1,44.6,29.80,ENE,64,0.0,0.0,98,0.04,,---,0.16,0.00,VWS V14.01,2013-05-25 08:57:00,
2013-05-25 05:02:00,45.0,44.5,29.81,ENE,64,0.0,0.0,98,0.05,,---,0.17,0.00,VWS V14.01,2013-05-25 09:02:00,
2013-05-25 05:07:00,45.1,44.6,29.81,ENE,64,0.0,0.0,98,0.05,,---,0.17,0.00,VWS V14.01,2013-05-25 09:07:00,
2013-05-25 05:12:00,45.3,44.8,29.80,ENE,64,0.0,0.0,98,0.06,,---,0.18,0.00,VWS V14.01,2013-05-25 09:12:00,
2013-05-25 05:17:00,45.1,44.6,29.79,ENE,64,0.0,0.0,98,0.05,,---,0.18,0.00,VWS V14.01,2013-05-25 09:17:00,
2013-05-25 05:22:00,45.0,44.5,29.80,ENE,64,0.0,0.0,98,0.06,,---,0.19,0.00,VWS V14.01,2013-05-25 09:22:00,
2013-05-25 05:27:00,45.0,44.5,29.80,ENE,64,0.0,0.0,98,0.06,,---,0.19,0.00,VWS V14.01,2013-05-25 09:27:00,
2013-05-25 05:32:00,45.0,44.5,29.79,ENE,64,0.0,0.0,98,0.04,,---,0.19,0.00,VWS V14.01,2013-05-25 09:32:00,
2013-05-25 05:37:00,44.7,44.2,29.79,ENE,64,0.0,0.0,98,0.05,,---,0.20,0.00,VWS V14.01,2013-05-25 09:37:00,
2013-05-25 05:42:00,44.7,44.2,29.79,ENE,64,0.0,0.0,98,0.06,,---,0.21,9.00,VWS V14.01,2013-05-25 09:42:00,
2013-05-25 05:47:00,44.5,44.0,29.80,ENE,64,0.0,0.0,98,0.07,,---,0.22,12.00,VWS V14.01,2013-05-25 09:47:00,
2013-05-25 05:52:00,44.7,44.2,29.79,ENE,64,0.0,0.0,98,0.08,,---,0.23,14.00,VWS V14.01,2013-05-25 09:52:00,
2013-05-25 05:57:00,44.7,44.2,29.80,ENE,64,0.0,0.0,98,0.08,,---,0.23,12.00,VWS V14.01,2013-05-25 09:57:00,
2013-05-25 06:02:00,44.7,44.2,29.80,ENE,64,0.0,0.0,98,0.06,,---,0.23,11.00,VWS V14.01,2013-05-25 10:02:00,
2013-05-25 06:07:00,44.4,43.9,29.80,ENE,64,0.0,0.0,98,0.07,,---,0.24,5.00,VWS V14.01,2013-05-25 10:07:00,
2013-05-25 06:12:00,44.5,44.0,29.81,ENE,64,0.0,0.0,98,0.07,,---,0.24,0.00,VWS V14.01,2013-05-25 10:12:00,
2013-05-25 06:17:00,44.7,44.2,29.79,ENE,64,0.0,0.0,98,0.06,,---,0.24,0.00,VWS V14.01,2013-05-25 10:17:00,
2013-05-25 06:23:00,44.5,44.0,29.78,ENE,64,0.0,0.0,98,0.08,,---,0.26,7.00,VWS V14.01,2013-05-25 10:23:00,
2013-05-25 06:28:00,44.4,43.9,29.79,ENE,64,0.0,0.0,98,0.14,,---,0.32,12.00,VWS V14.01,2013-05-25 10:28:00,
2013-05-25 06:33:00,44.4,43.9,29.78,ENE,64,0.0,0.0,98,0.15,,---,0.34,21.00,VWS V14.01,2013-05-25 10:33:00,
2013-05-25 06:38:00,44.4,43.9,29.79,ENE,64,0.0,0.0,98,0.18,,---,0.37,37.00,VWS V14.01,2013-05-25 10:38:00,
2013-05-25 06:43:00,44.2,43.7,29.79,ENE,64,0.0,0.0,98,0.20,,---,0.39,37.00,VWS V14.01,2013-05-25 10:43:00,
2013-05-25 06:48:00,44.4,43.9,29.79,ENE,64,0.0,0.0,98,0.18,,---,0.40,47.00,VWS V14.01,2013-05-25 10:48:00,
2013-05-25 06:52:00,44.5,44.0,29.79,SSW,212,0.0,2.0,98,0.19,,---,0.41,65.00,VWS V14.01,2013-05-25 10:52:00,
2013-05-25 06:58:00,44.8,44.3,29.78,SSW,212,0.0,2.0,98,0.19,,---,0.41,88.00,VWS V14.01,2013-05-25 10:58:00,
2013-05-25 07:03:00,44.8,44.3,29.79,SSW,212,0.0,0.0,98,0.18,,---,0.41,54.00,VWS V14.01,2013-05-25 11:03:00,
2013-05-25 07:08:00,44.8,44.3,29.79,WSW,237,0.0,1.0,98,0.18,,---,0.41,39.00,VWS V14.01,2013-05-25 11:08:00,
2013-05-25 07:13:00,45.0,44.5,29.79,WSW,237,0.0,1.0,98,0.18,,---,0.41,37.00,VWS V14.01,2013-05-25 11:13:00,
2013-05-25 07:18:00,44.8,44.3,29.79,WSW,237,0.0,0.0,98,0.17,,---,0.41,32.00,VWS V14.01,2013-05-25 11:18:00,
2013-05-25 07:23:00,44.8,44.3,29.79,WSW,237,0.0,0.0,98,0.17,,---,0.41,37.00,VWS V14.01,2013-05-25 11:23:00,
2013-05-25 07:28:00,44.8,44.3,29.79,WSW,237,0.0,0.0,98,0.18,,---,0.42,40.00,VWS V14.01,2013-05-25 11:28:00,
2013-05-25 07:33:00,45.0,44.5,29.79,WSW,237,0.0,2.0,98,0.08,,---,0.42,32.00,VWS V14.01,2013-05-25 11:33:00,
2013-05-25 07:38:00,44.7,44.2,29.79,WSW,257,0.0,2.0,98,0.08,,---,0.42,32.00,VWS V14.01,2013-05-25 11:38:00,
2013-05-25 07:43:00,44.7,44.2,29.79,WSW,257,0.0,2.0,98,0.08,,---,0.42,56.00,VWS V14.01,2013-05-25 11:43:00,
2013-05-25 07:48:00,45.0,44.5,29.79,SW,228,0.0,1.0,98,0.04,,---,0.44,86.00,VWS V14.01,2013-05-25 11:48:00,
2013-05-25 07:53:00,45.1,44.6,29.80,SW,228,0.0,1.0,98,0.04,,---,0.44,81.00,VWS V14.01,2013-05-25 11:53:00,
2013-05-25 07:58:00,45.0,44.5,29.80,SW,228,0.0,1.0,98,0.05,,---,0.45,76.00,VWS V14.01,2013-05-25 11:58:00,
2013-05-25 08:03:00,45.3,44.8,29.79,SW,228,0.0,0.0,98,0.04,,---,0.45,83.00,VWS V14.01,2013-05-25 12:03:00,
2013-05-25 08:08:00,45.4,44.9,29.79,SW,228,0.0,1.0,98,0.04,,---,0.45,67.00,VWS V14.01,2013-05-25 12:08:00,
2013-05-25 08:13:00,45.4,45.1,29.79,SW,228,0.0,1.0,99,0.04,,---,0.45,77.00,VWS V14.01,2013-05-25 12:13:00,
2013-05-25 08:18:00,45.1,44.8,29.79,SW,227,0.0,1.0,99,0.05,,---,0.46,86.00,VWS V14.01,2013-05-25 12:18:00,
2013-05-25 08:23:00,45.1,44.6,29.79,SW,226,1.0,1.0,98,0.05,,---,0.46,76.00,VWS V14.01,2013-05-25 12:23:00,
2013-05-25 08:28:00,45.1,44.6,29.79,SW,226,0.0,1.0,98,0.05,,---,0.46,144.00,VWS V14.01,2013-05-25 12:28:00,
2013-05-25 08:33:00,45.3,44.8,29.79,SW,226,0.0,0.0,98,0.04,,---,0.46,79.00,VWS V14.01,2013-05-25 12:33:00,
2013-05-25 08:38:00,45.0,44.5,29.79,SW,227,0.0,1.0,98,0.04,,---,0.46,98.00,VWS V14.01,2013-05-25 12:38:00,
2013-05-25 08:43:00,45.1,44.6,29.79,SSW,201,1.0,1.0,98,0.05,,---,0.47,93.00,VWS V14.01,2013-05-25 12:43:00,
2013-05-25 08:48:00,45.0,44.5,29.79,SSW,201,0.0,0.0,98,0.03,,---,0.47,60.00,VWS V14.01,2013-05-25 12:48:00,
2013-05-25 08:53:00,45.3,44.8,29.79,SSW,201,0.0,0.0,98,0.03,,---,0.47,53.00,VWS V14.01,2013-05-25 12:53:00,
2013-05-25 08:58:00,45.1,44.8,29.79,SSW,201,0.0,0.0,99,0.03,,---,0.47,76.00,VWS V14.01,2013-05-25 12:58:00,
2013-05-25 09:03:00,45.1,44.6,29.79,WSW,254,0.0,2.0,98,0.02,,---,0.47,97.00,VWS V14.01,2013-05-25 13:03:00,
2013-05-25 09:08:00,45.6,45.1,29.79,WSW,253,0.0,2.0,98,0.03,,---,0.48,137.00,VWS V14.01,2013-05-25 13:08:00,
2013-05-25 09:13:00,45.3,44.8,29.79,WSW,253,0.0,2.0,98,0.03,,---,0.48,102.00,VWS V14.01,2013-05-25 13:13:00,
2013-05-25 09:18:00,45.3,45.0,29.79,WSW,253,0.0,0.0,99,0.04,,---,0.49,63.00,VWS V14.01,2013-05-25 13:18:00,
2013-05-25 09:23:00,45.4,45.1,29.79,WSW,253,0.0,0.0,99,0.04,,---,0.49,83.00,VWS V14.01,2013-05-25 13:23:00,
2013-05-25 09:28:00,45.6,45.1,29.79,WSW,253,0.0,0.0,98,0.05,,---,0.50,127.00,VWS V14.01,2013-05-25 13:28:00,
2013-05-25 09:33:00,45.6,45.1,29.78,WSW,253,0.0,0.0,98,0.05,,---,0.51,141.00,VWS V14.01,2013-05-25 13:33:00,
2013-05-25 09:38:00,45.7,45.2,29.78,WNW,299,0.0,2.0,98,0.06,,---,0.52,74.00,VWS V14.01,2013-05-25 13:38:00,
2013-05-25 09:43:00,45.7,45.4,29.78,WNW,299,0.0,2.0,99,0.07,,---,0.53,69.00,VWS V14.01,2013-05-25 13:43:00,
2013-05-25 09:48:00,45.6,45.1,29.78,WNW,299,0.0,0.0,98,0.06,,---,0.53,139.00,VWS V14.01,2013-05-25 13:48:00,
2013-05-25 09:53:00,46.0,45.7,29.78,WNW,299,0.0,0.0,99,0.08,,---,0.55,155.00,VWS V14.01,2013-05-25 13:53:00,
2013-05-25 09:58:00,46.1,45.8,29.78,WNW,300,0.0,1.0,99,0.09,,---,0.56,132.00,VWS V14.01,2013-05-25 13:58:00,
2013-05-25 10:03:00,46.1,45.8,29.78,East,97,0.0,1.0,99,0.10,,---,0.57,95.00,VWS V14.01,2013-05-25 14:03:00,
2013-05-25 10:08:00,45.8,45.5,29.78,East,97,0.0,1.0,99,0.10,,---,0.57,93.00,VWS V14.01,2013-05-25 14:08:00,
2013-05-25 10:13:00,45.8,45.5,29.77,NE,35,0.0,1.0,99,0.10,,---,0.57,107.00,VWS V14.01,2013-05-25 14:13:00,
2013-05-25 10:18:00,45.8,45.5,29.77,NE,36,2.0,2.0,99,0.08,,---,0.57,158.00,VWS V14.01,2013-05-25 14:18:00,
2013-05-25 10:23:00,45.8,45.5,29.77,NE,36,0.0,2.0,99,0.08,,---,0.57,132.00,VWS V14.01,2013-05-25 14:23:00,
2013-05-25 10:28:00,46.1,45.8,29.78,NE,36,0.0,2.0,99,0.09,,---,0.58,167.00,VWS V14.01,2013-05-25 14:28:00,
2013-05-25 10:33:00,46.0,45.7,29.78,North,355,0.0,0.0,99,0.07,,---,0.58,121.00,VWS V14.01,2013-05-25 14:33:00,
2013-05-25 10:38:00,46.1,45.8,29.78,WSW,245,1.0,1.0,99,0.07,,---,0.58,125.00,VWS V14.01,2013-05-25 14:38:00,
2013-05-25 10:43:00,46.1,45.8,29.78,WSW,245,0.0,2.0,99,0.08,,---,0.59,105.00,VWS V14.01,2013-05-25 14:43:00,
2013-05-25 10:48:00,46.1,45.8,29.78,WSW,250,0.0,0.0,99,0.06,,---,0.59,121.00,VWS V14.01,2013-05-25 14:48:00,
2013-05-25 10:53:00,45.8,45.5,29.78,WSW,254,1.0,2.0,99,0.06,,---,0.59,121.00,VWS V14.01,2013-05-25 14:53:00,
2013-05-25 10:58:00,46.0,45.7,29.78,West,260,0.0,2.0,99,0.07,,---,0.60,141.00,VWS V14.01,2013-05-25 14:58:00,
2013-05-25 11:03:00,46.3,46.0,29.78,WSW,252,0.0,0.0,99,0.04,,---,0.61,139.00,VWS V14.01,2013-05-25 15:03:00,
2013-05-25 11:08:00,46.1,45.8,29.77,WSW,253,0.0,1.0,99,0.04,,---,0.61,139.00,VWS V14.01,2013-05-25 15:08:00,
2013-05-25 11:13:00,46.6,46.3,29.77,WSW,252,0.0,1.0,99,0.04,,---,0.61,174.00,VWS V14.01,2013-05-25 15:13:00,
2013-05-25 11:18:00,46.9,46.6,29.77,WSW,252,0.0,1.0,99,0.05,,---,0.62,207.00,VWS V14.01,2013-05-25 15:18:00,
2013-05-25 11:23:00,46.9,46.6,29.77,SW,221,0.0,3.0,99,0.05,,---,0.62,197.00,VWS V14.01,2013-05-25 15:23:00,
2013-05-25 11:28:00,46.6,46.3,29.77,West,271,2.0,3.0,99,0.05,,---,0.62,158.00,VWS V14.01,2013-05-25 15:28:00,
2013-05-25 11:33:00,46.3,46.0,29.77,ESE,108,2.0,2.0,99,0.04,,---,0.62,221.00,VWS V14.01,2013-05-25 15:33:00,
2013-05-25 11:38:00,46.4,46.1,29.77,ESE,108,1.0,2.0,99,0.05,,---,0.63,214.00,VWS V14.01,2013-05-25 15:38:00,
2013-05-25 11:43:00,46.4,46.1,29.77,NE,44,0.0,3.0,99,0.05,,---,0.63,188.00,VWS V14.01,2013-05-25 15:43:00,
2013-05-25 11:48:00,46.4,46.1,29.77,SE,146,0.0,0.0,99,0.04,,---,0.63,148.00,VWS V14.01,2013-05-25 15:48:00,
2013-05-25 11:53:00,46.7,46.4,29.76,WSW,244,0.0,2.0,99,0.04,,---,0.63,144.00,VWS V14.01,2013-05-25 15:53:00,
2013-05-25 11:58:00,46.4,46.1,29.76,WSW,246,2.0,2.0,99,0.04,,---,0.63,86.00,VWS V14.01,2013-05-25 15:58:00,
2013-05-25 12:03:00,46.3,46.0,29.76,WSW,240,0.0,1.0,99,0.03,,---,0.63,146.00,VWS V14.01,2013-05-25 16:03:00,
2013-05-25 12:08:00,46.1,45.8,29.76,WSW,240,0.0,1.0,99,0.04,,---,0.64,153.00,VWS V14.01,2013-05-25 16:08:00,
2013-05-25 12:13:00,46.4,45.9,29.75,WSW,238,0.0,3.0,98,0.04,,---,0.64,148.00,VWS V14.01,2013-05-25 16:13:00,
2013-05-25 12:18:00,46.3,45.8,29.76,WSW,239,0.0,0.0,98,0.02,,---,0.64,172.00,VWS V14.01,2013-05-25 16:18:00,
2013-05-25 12:23:00,46.9,46.6,29.75,WSW,238,0.0,1.0,99,0.02,,---,0.64,151.00,VWS V14.01,2013-05-25 16:23:00,
2013-05-25 12:28:00,46.7,46.4,29.75,SW,227,1.0,3.0,99,0.03,,---,0.65,220.00,VWS V14.01,2013-05-25 16:28:00,
2013-05-25 12:33:00,46.7,46.4,29.75,WSW,246,0.0,2.0,99,0.03,,---,0.65,134.00,VWS V14.01,2013-05-25 16:33:00,
2013-05-25 12:38:00,46.6,46.3,29.75,NE,49,0.0,3.0,99,0.03,,---,0.65,141.00,VWS V14.01,2013-05-25 16:38:00,
2013-05-25 12:43:00,46.3,45.8,29.75,ENE,73,1.0,3.0,98,0.03,,---,0.65,172.00,VWS V14.01,2013-05-25 16:43:00,
2013-05-25 12:48:00,46.4,46.1,29.75,ENE,73,0.0,0.0,99,0.03,,---,0.66,195.00,VWS V14.01,2013-05-25 16:48:00,
2013-05-25 12:53:00,46.4,46.1,29.75,NE,36,0.0,1.0,99,0.03,,---,0.66,137.00,VWS V14.01,2013-05-25 16:53:00,
2013-05-25 12:58:00,46.7,46.2,29.75,NE,36,0.0,1.0,98,0.03,,---,0.66,137.00,VWS V14.01,2013-05-25 16:58:00,
2013-05-25 13:03:00,46.7,46.4,29.75,ESE,105,0.0,0.0,99,0.04,,---,0.67,116.00,VWS V14.01,2013-05-25 17:03:00,
2013-05-25 13:08:00,46.4,45.9,29.75,SE,143,1.0,2.0,98,0.04,,---,0.67,118.00,VWS V14.01,2013-05-25 17:08:00,
2013-05-25 13:13:00,46.0,45.5,29.75,NNW,328,2.0,3.0,98,0.05,,---,0.68,105.00,VWS V14.01,2013-05-25 17:13:00,
2013-05-25 13:18:00,46.1,45.6,29.75,WNW,283,0.0,0.0,98,0.04,,---,0.68,135.00,VWS V14.01,2013-05-25 17:18:00,
2013-05-25 13:23:00,46.1,45.6,29.75,WNW,282,2.0,3.0,98,0.04,,---,0.68,151.00,VWS V14.01,2013-05-25 17:23:00,
2013-05-25 13:28:00,46.1,45.8,29.75,SSW,203,0.0,3.0,99,0.05,,---,0.69,125.00,VWS V14.01,2013-05-25 17:28:00,
2013-05-25 13:33:00,46.1,45.6,29.75,SSW,203,0.0,0.0,98,0.04,,---,0.69,113.00,VWS V14.01,2013-05-25 17:33:00,
2013-05-25 13:38:00,46.4,45.9,29.75,SSW,203,0.0,1.0,98,0.04,,---,0.69,134.00,VWS V14.01,2013-05-25 17:38:00,
2013-05-25 13:43:00,46.0,45.5,29.75,SSW,205,1.0,1.0,98,0.04,,---,0.69,113.00,VWS V14.01,2013-05-25 17:43:00,
2013-05-25 13:48:00,45.7,45.2,29.75,SSW,205,0.0,0.0,98,0.04,,---,0.70,127.00,VWS V14.01,2013-05-25 17:48:00,
2013-05-25 13:53:00,45.7,45.2,29.76,NNW,341,3.0,3.0,98,0.04,,---,0.70,97.00,VWS V14.01,2013-05-25 17:53:00,
2013-05-25 13:58:00,45.7,45.2,29.75,NW,323,0.0,3.0,98,0.04,,---,0.70,141.00,VWS V14.01,2013-05-25 17:58:00,
2013-05-25 14:03:00,45.4,44.9,29.76,ENE,63,0.0,0.0,98,0.04,,---,0.70,118.00,VWS V14.01,2013-05-25 18:03:00,
2013-05-25 14:08:00,45.1,44.6,29.76,North,5,0.0,2.0,98,0.05,,---,0.71,109.00,VWS V14.01,2013-05-25 18:08:00,
2013-05-25 14:13:00,45.3,44.8,29.76,North,360,0.0,2.0,98,0.05,,---,0.71,141.00,VWS V14.01,2013-05-25 18:13:00,
2013-05-25 14:18:00,45.4,44.9,29.76,NW,325,0.0,0.0,98,0.03,,---,0.71,176.00,VWS V14.01,2013-05-25 18:18:00,
2013-05-25 14:23:00,45.4,44.9,29.76,NNE,27,0.0,2.0,98,0.03,,---,0.71,123.00,VWS V14.01,2013-05-25 18:23:00,
2013-05-25 14:28:00,45.7,45.4,29.75,NNE,27,0.0,2.0,99,0.03,,---,0.71,139.00,VWS V14.01,2013-05-25 18:28:00,
2013-05-25 14:33:00,45.6,45.3,29.76,NNE,25,0.0,0.0,99,0.03,,---,0.72,139.00,VWS V14.01,2013-05-25 18:33:00,
2013-05-25 14:38:00,45.6,45.3,29.75,NNE,25,0.0,0.0,99,0.03,,---,0.72,132.00,VWS V14.01,2013-05-25 18:38:00,
2013-05-25 14:43:00,45.6,45.1,29.75,NNE,17,0.0,2.0,98,0.03,,---,0.72,114.00,VWS V14.01,2013-05-25 18:43:00,
2013-05-25 14:48:00,45.3,44.8,29.75,North,355,0.0,0.0,98,0.04,,---,0.73,121.00,VWS V14.01,2013-05-25 18:48:00,
2013-05-25 14:53:00,45.3,44.8,29.75,North,355,0.0,1.0,98,0.04,,---,0.73,91.00,VWS V14.01,2013-05-25 18:53:00,
2013-05-25 14:58:00,45.3,44.8,29.75,NNE,22,0.0,2.0,98,0.05,,---,0.74,123.00,VWS V14.01,2013-05-25 18:58:00,
2013-05-25 15:03:00,45.6,45.1,29.75,NNE,22,0.0,0.0,98,0.04,,---,0.74,91.00,VWS V14.01,2013-05-25 19:03:00,
2013-05-25 15:08:00,45.3,45.0,29.75,North,9,1.0,2.0,99,0.05,,---,0.75,102.00,VWS V14.01,2013-05-25 19:08:00,
2013-05-25 15:13:00,45.0,44.5,29.75,North,350,0.0,2.0,98,0.05,,---,0.75,98.00,VWS V14.01,2013-05-25 19:13:00,
2013-05-25 15:18:00,44.7,44.2,29.75,North,350,0.0,0.0,98,0.05,,---,0.76,114.00,VWS V14.01,2013-05-25 19:18:00,
2013-05-25 15:23:00,44.5,44.0,29.75,North,349,0.0,0.0,98,0.05,,---,0.76,118.00,VWS V14.01,2013-05-25 19:23:00,
2013-05-25 15:29:00,44.1,43.6,29.75,North,349,0.0,1.0,98,0.05,,---,0.76,109.00,VWS V14.01,2013-05-25 19:29:00,
2013-05-25 15:33:00,43.8,43.3,29.74,North,349,0.0,0.0,98,0.05,,---,0.77,88.00,VWS V14.01,2013-05-25 19:33:00,
2013-05-25 15:38:00,43.8,43.3,29.74,North,349,0.0,0.0,98,0.05,,---,0.77,100.00,VWS V14.01,2013-05-25 19:38:00,
2013-05-25 15:43:00,43.9,43.4,29.74,North,349,0.0,0.0,98,0.05,,---,0.77,113.00,VWS V14.01,2013-05-25 19:43:00,
2013-05-25 15:48:00,43.9,43.4,29.74,North,360,0.0,2.0,98,0.05,,---,0.77,84.00,VWS V14.01,2013-05-25 19:48:00,
2013-05-25 15:54:00,43.9,43.4,29.75,ENE,71,1.0,2.0,98,0.06,,---,0.78,84.00,VWS V14.01,2013-05-25 19:54:00,
2013-05-25 15:59:00,43.8,43.3,29.75,WNW,295,1.0,4.0,98,0.06,,---,0.78,83.00,VWS V14.01,2013-05-25 19:59:00,
2013-05-25 16:03:00,43.8,43.3,29.75,SSE,157,1.0,2.0,98,0.04,,---,0.78,91.00,VWS V14.01,2013-05-25 20:03:00,
2013-05-25 16:09:00,43.8,43.3,29.75,NNE,26,1.0,2.0,98,0.05,,---,0.79,91.00,VWS V14.01,2013-05-25 20:09:00,
2013-05-25 16:14:00,43.7,43.2,29.75,WNW,292,1.0,2.0,98,0.05,,---,0.79,90.00,VWS V14.01,2013-05-25 20:14:00,
2013-05-25 16:19:00,43.4,42.9,29.75,NW,306,0.0,2.0,98,0.04,,---,0.79,81.00,VWS V14.01,2013-05-25 20:19:00,
2013-05-25 16:24:00,43.2,42.7,29.75,NW,307,0.0,2.0,98,0.05,,---,0.80,81.00,VWS V14.01,2013-05-25 20:24:00,
2013-05-25 16:29:00,42.9,42.4,29.75,NW,307,0.0,2.0,98,0.05,,---,0.80,69.00,VWS V14.01,2013-05-25 20:29:00,
2013-05-25 16:34:00,42.7,42.2,29.74,ENE,74,0.0,0.0,98,0.03,,---,0.80,56.00,VWS V14.01,2013-05-25 20:34:00,
2013-05-25 16:39:00,42.7,42.2,29.74,ENE,78,0.0,2.0,98,0.03,,---,0.80,70.00,VWS V14.01,2013-05-25 20:39:00,
2013-05-25 16:44:00,42.5,42.0,29.74,NW,319,2.0,2.0,98,0.03,,---,0.80,53.00,VWS V14.01,2013-05-25 20:44:00,
2013-05-25 16:49:00,42.4,41.9,29.74,SW,220,0.0,2.0,98,0.03,,---,0.80,60.00,VWS V14.01,2013-05-25 20:49:00,
2013-05-25 16:54:00,42.2,41.7,29.75,North,355,1.0,2.0,98,0.03,,---,0.80,62.00,VWS V14.01,2013-05-25 20:54:00,
2013-05-25 16:59:00,41.9,41.4,29.75,North,351,0.0,2.0,98,0.04,,---,0.81,69.00,VWS V14.01,2013-05-25 20:59:00,
2013-05-25 17:04:00,42.1,41.6,29.75,North,350,0.0,1.0,98,0.03,,---,0.81,76.00,VWS V14.01,2013-05-25 21:04:00,
2013-05-25 17:09:00,41.9,41.4,29.75,WNW,293,0.0,1.0,98,0.03,,---,0.81,100.00,VWS V14.01,2013-05-25 21:09:00,
2013-05-25 17:14:00,41.9,41.4,29.75,NNW,331,0.0,1.0,98,0.03,,---,0.81,97.00,VWS V14.01,2013-05-25 21:14:00,
2013-05-25 17:19:00,42.1,41.6,29.75,West,259,1.0,1.0,98,0.02,,---,0.81,100.00,VWS V14.01,2013-05-25 21:19:00,
2013-05-25 17:24:00,42.1,41.6,29.75,West,275,0.0,1.0,98,0.02,,---,0.81,104.00,VWS V14.01,2013-05-25 21:24:00,
2013-05-25 17:29:00,42.2,41.7,29.75,West,272,0.0,1.0,98,0.02,,---,0.81,88.00,VWS V14.01,2013-05-25 21:29:00,
2013-05-25 17:34:00,42.2,41.7,29.75,SW,225,0.0,2.0,98,0.01,,---,0.81,93.00,VWS V14.01,2013-05-25 21:34:00,
2013-05-25 17:39:00,42.2,41.7,29.75,South,179,0.0,2.0,98,0.01,,---,0.81,70.00,VWS V14.01,2013-05-25 21:39:00,
2013-05-25 17:44:00,42.1,41.6,29.75,South,173,0.0,2.0,98,0.01,,---,0.81,60.00,VWS V14.01,2013-05-25 21:44:00,
2013-05-25 17:49:00,41.9,41.4,29.75,North,5,2.0,2.0,98,0.01,,---,0.81,56.00,VWS V14.01,2013-05-25 21:49:00,
2013-05-25 17:54:00,41.8,41.3,29.75,NW,314,0.0,2.0,98,0.01,,---,0.81,70.00,VWS V14.01,2013-05-25 21:54:00,
2013-05-25 17:59:00,41.9,41.4,29.75,NW,314,0.0,2.0,98,0.01,,---,0.81,90.00,VWS V14.01,2013-05-25 21:59:00,
2013-05-25 18:04:00,41.9,41.4,29.74,NW,314,0.0,1.0,98,0.00,,---,0.81,81.00,VWS V14.01,2013-05-25 22:04:00,
2013-05-25 18:09:00,42.2,41.7,29.74,West,264,0.0,2.0,98,0.00,,---,0.81,72.00,VWS V14.01,2013-05-25 22:09:00,
2013-05-25 18:14:00,42.1,41.6,29.75,West,264,0.0,2.0,98,0.00,,---,0.81,69.00,VWS V14.01,2013-05-25 22:14:00,
2013-05-25 18:19:00,42.2,41.7,29.74,West,264,0.0,1.0,98,0.00,,---,0.81,60.00,VWS V14.01,2013-05-25 22:19:00,
2013-05-25 18:24:00,42.1,41.6,29.75,West,264,0.0,1.0,98,0.00,,---,0.81,56.00,VWS V14.01,2013-05-25 22:24:00,
2013-05-25 18:29:00,41.9,41.4,29.75,ESE,109,0.0,1.0,98,0.00,,---,0.81,39.00,VWS V14.01,2013-05-25 22:29:00,
2013-05-25 18:34:00,41.8,41.3,29.75,ESE,109,0.0,1.0,98,0.00,,---,0.81,32.00,VWS V14.01,2013-05-25 22:34:00,
2013-05-25 18:39:00,41.7,41.2,29.75,ESE,109,0.0,1.0,98,0.00,,---,0.81,35.00,VWS V14.01,2013-05-25 22:39:00,
2013-05-25 18:44:00,41.7,41.2,29.75,ESE,109,0.0,1.0,98,0.00,,---,0.81,33.00,VWS V14.01,2013-05-25 22:44:00,
2013-05-25 18:49:00,41.7,41.2,29.75,ESE,109,0.0,0.0,98,0.00,,---,0.81,30.00,VWS V14.01,2013-05-25 22:49:00,
2013-05-25 18:54:00,41.7,41.2,29.75,ESE,109,0.0,2.0,98,0.00,,---,0.81,30.00,VWS V14.01,2013-05-25 22:54:00,
2013-05-25 18:59:00,41.5,41.0,29.75,ESE,109,0.0,2.0,98,0.00,,---,0.81,30.00,VWS V14.01,2013-05-25 22:59:00,
2013-05-25 19:04:00,41.5,41.0,29.75,ESE,109,0.0,0.0,98,0.00,,---,0.81,30.00,VWS V14.01,2013-05-25 23:04:00,
2013-05-25 19:09:00,41.4,40.9,29.75,ESE,109,1.0,2.0,98,0.00,,---,0.81,25.00,VWS V14.01,2013-05-25 23:09:00,
2013-05-25 19:14:00,41.4,40.9,29.75,ESE,103,1.0,2.0,98,0.00,,---,0.81,26.00,VWS V14.01,2013-05-25 23:14:00,
2013-05-25 19:19:00,41.4,40.9,29.75,ESE,102,0.0,0.0,98,0.00,,---,0.81,19.00,VWS V14.01,2013-05-25 23:19:00,
2013-05-25 19:24:00,41.4,40.9,29.76,ESE,103,0.0,1.0,98,0.00,,---,0.81,18.00,VWS V14.01,2013-05-25 23:24:00,
2013-05-25 19:29:00,41.2,40.7,29.75,East,101,0.0,1.0,98,0.00,,---,0.81,21.00,VWS V14.01,2013-05-25 23:29:00,
2013-05-25 19:34:00,41.2,40.7,29.75,East,101,0.0,0.0,98,0.00,,---,0.81,19.00,VWS V14.01,2013-05-25 23:34:00,
2013-05-25 19:39:00,41.1,40.6,29.76,East,97,1.0,1.0,98,0.00,,---,0.81,14.00,VWS V14.01,2013-05-25 23:39:00,
2013-05-25 19:44:00,41.2,40.7,29.76,WSW,253,0.0,3.0,98,0.00,,---,0.81,9.00,VWS V14.01,2013-05-25 23:44:00,
2013-05-25 19:49:00,41.1,40.6,29.76,WSW,253,0.0,0.0,98,0.01,,---,0.82,7.00,VWS V14.01,2013-05-25 23:49:00,
2013-05-25 19:54:00,41.1,40.6,29.76,West,276,2.0,3.0,98,0.01,,---,0.82,5.00,VWS V14.01,2013-05-25 23:54:00,
2013-05-25 19:59:00,40.9,40.4,29.76,NNE,24,0.0,3.0,98,0.01,,---,0.82,7.00,VWS V14.01,2013-05-25 23:59:00,
2013-05-25 20:04:00,40.9,40.4,29.76,East,99,0.0,1.0,98,0.01,,---,0.82,0.00,VWS V14.01,2013-05-26 00:04:00,
2013-05-25 20:09:00,40.8,40.3,29.76,SW,236,0.0,1.0,98,0.01,,---,0.82,0.00,VWS V14.01,2013-05-26 00:09:00,
2013-05-25 20:14:00,40.8,40.3,29.75,West,279,0.0,6.0,98,0.01,,---,0.82,0.00,VWS V14.01,2013-05-26 00:14:00,
2013-05-25 20:19:00,40.7,40.2,29.76,SE,146,1.0,3.0,98,0.01,,---,0.82,0.00,VWS V14.01,2013-05-26 00:19:00,
2013-05-25 20:24:00,40.5,40.0,29.76,West,272,0.0,3.0,98,0.01,,---,0.82,0.00,VWS V14.01,2013-05-26 00:24:00,
2013-05-25 20:29:00,40.4,39.9,29.76,WSW,243,1.0,4.0,98,0.01,,---,0.82,0.00,VWS V14.01,2013-05-26 00:29:00,
2013-05-25 20:34:00,40.2,39.7,29.76,WSW,249,0.0,6.0,98,0.02,,---,0.83,0.00,VWS V14.01,2013-05-26 00:34:00,
2013-05-25 20:39:00,40.1,39.6,29.77,WNW,291,0.0,6.0,98,0.02,,---,0.83,0.00,VWS V14.01,2013-05-26 00:39:00,
2013-05-25 20:44:00,39.9,39.4,29.77,WNW,296,7.0,7.0,98,0.02,,---,0.83,0.00,VWS V14.01,2013-05-26 00:44:00,
2013-05-25 20:49:00,39.8,39.3,29.77,WNW,287,0.0,1.0,98,0.03,,---,0.84,0.00,VWS V14.01,2013-05-26 00:49:00,
2013-05-25 20:54:00,39.7,39.2,29.77,WNW,287,0.0,2.0,98,0.03,,---,0.84,0.00,VWS V14.01,2013-05-26 00:54:00,
2013-05-25 20:59:00,39.5,39.0,29.77,West,268,0.0,2.0,98,0.04,,---,0.85,0.00,VWS V14.01,2013-05-26 00:59:00,
2013-05-25 21:04:00,39.4,38.9,29.77,WNW,282,3.0,3.0,98,0.03,,---,0.85,0.00,VWS V14.01,2013-05-26 01:04:00,
2013-05-25 21:09:00,39.1,38.6,29.77,NW,323,0.0,3.0,98,0.04,,---,0.86,0.00,VWS V14.01,2013-05-26 01:09:00,
2013-05-25 21:14:00,38.8,38.3,29.77,West,275,1.0,3.0,98,0.04,,---,0.86,0.00,VWS V14.01,2013-05-26 01:14:00,
2013-05-25 21:19:00,38.5,38.0,29.77,East,85,4.0,4.0,98,0.05,,---,0.87,0.00,VWS V14.01,2013-05-26 01:19:00,
2013-05-25 21:24:00,38.2,37.4,29.77,SW,225,0.0,4.0,97,0.06,,---,0.88,0.00,VWS V14.01,2013-05-26 01:24:00,
2013-05-25 21:29:00,37.8,37.0,29.77,WNW,290,0.0,4.0,97,0.07,,---,0.89,0.00,VWS V14.01,2013-05-26 01:29:00,
2013-05-25 21:34:00,37.4,36.6,29.78,North,355,0.0,2.0,97,0.08,,---,0.90,0.00,VWS V14.01,2013-05-26 01:34:00,
2013-05-25 21:39:00,36.9,36.1,29.78,North,349,0.0,3.0,97,0.08,,---,0.90,0.00,VWS V14.01,2013-05-26 01:39:00,
2013-05-25 21:45:00,36.6,35.8,29.78,North,349,0.0,3.0,97,0.08,,---,0.90,0.00,VWS V14.01,2013-05-26 01:45:00,
2013-05-25 21:50:00,36.1,35.3,29.78,NNW,348,0.0,0.0,97,0.06,,---,0.90,0.00,VWS V14.01,2013-05-26 01:50:00,
2013-05-25 21:55:00,35.6,34.8,29.78,NNW,348,0.0,0.0,97,0.06,,---,0.90,0.00,VWS V14.01,2013-05-26 01:55:00,
2013-05-25 22:00:00,35.1,34.3,29.77,NNW,348,0.0,0.0,97,0.06,,---,0.90,0.00,VWS V14.01,2013-05-26 02:00:00,
2013-05-25 22:05:00,34.6,33.8,29.77,NNW,348,2.0,2.0,97,0.05,,---,0.90,0.00,VWS V14.01,2013-05-26 02:05:00,
2013-05-25 22:10:00,34.2,33.4,29.77,NNW,348,0.0,2.0,97,0.05,,---,0.90,0.00,VWS V14.01,2013-05-26 02:10:00,
2013-05-25 22:15:00,33.9,32.9,29.77,NNW,340,0.0,2.0,96,0.05,,---,0.90,0.00,VWS V14.01,2013-05-26 02:15:00,
2013-05-25 22:20:00,33.6,32.8,29.77,NNW,340,0.0,0.0,97,0.04,,---,0.90,0.00,VWS V14.01,2013-05-26 02:20:00,
2013-05-25 23:11:00,32.8,32.0,29.76,NNW,338,0.0,0.0,97,0.01,,---,0.91,0.00,VWS V14.01,2013-05-26 03:11:00,
2013-05-25 23:16:00,33.0,32.2,29.76,NNW,338,0.0,1.0,97,0.01,,---,0.91,0.00,VWS V14.01,2013-05-26 03:16:00,
2013-05-25 23:21:00,33.0,32.2,29.76,West,281,0.0,0.0,97,0.01,,---,0.91,0.00,VWS V14.01,2013-05-26 03:21:00,
2013-05-25 23:26:00,33.0,32.2,29.75,West,280,0.0,0.0,97,0.01,,---,0.91,0.00,VWS V14.01,2013-05-26 03:26:00,
2013-05-25 23:31:00,33.1,32.3,29.75,West,280,0.0,0.0,97,0.01,,---,0.91,0.00,VWS V14.01,2013-05-26 03:31:00,
2013-05-25 23:36:00,33.1,32.3,29.75,West,280,0.0,0.0,97,0.01,,---,0.91,0.00,VWS V14.01,2013-05-26 03:36:00,
2013-05-25 23:41:00,33.1,32.3,29.75,West,280,1.0,1.0,97,0.01,,---,0.91,0.00,VWS V14.01,2013-05-26 03:41:00,
2013-05-25 23:46:00,33.1,32.3,29.75,WNW,283,0.0,1.0,97,0.02,,---,0.92,0.00,VWS V14.01,2013-05-26 03:46:00,
2013-05-25 23:51:00,33.3,32.5,29.75,WNW,283,0.0,0.0,97,0.02,,---,0.92,0.00,VWS V14.01,2013-05-26 03:51:00,
2013-05-25 23:56:00,33.3,32.5,29.75,WNW,283,0.0,0.0,97,0.02,,---,0.92,0.00,VWS V14.01,2013-05-26 03:56:00,